sensor_id;sensor_type;location;lat;lon;timestamp;temperature;humidity
17080;DHT22;8655;57.106;-2.088;2023-09-19T00:02:02;19.00;71.60
17080;DHT22;8655;57.106;-2.088;2023-09-19T00:04:34;19.00;71.60
17080;DHT22;8655;57.106;-2.088;2023-09-19T00:07:00;19.00;71.60
17080;DHT22;8655;57.106;-2.088;2023-09-19T00:09:28;19.00;71.60
17080;DHT22;8655;57.106;-2.088;2023-09-19T00:11:53;19.00;71.60
17080;DHT22;8655;57.106;-2.088;2023-09-19T00:14:19;18.90;71.50
17080;DHT22;8655;57.106;-2.088;2023-09-19T00:16:45;18.90;71.50
17080;DHT22;8655;57.106;-2.088;2023-09-19T00:19:12;18.90;71.40
17080;DHT22;8655;57.106;-2.088;2023-09-19T00:21:38;18.90;71.40
17080;DHT22;8655;57.106;-2.088;2023-09-19T00:24:06;18.90;71.50
17080;DHT22;8655;57.106;-2.088;2023-09-19T00:26:32;18.90;71.50
17080;DHT22;8655;57.106;-2.088;2023-09-19T00:29:00;18.90;71.40
17080;DHT22;8655;57.106;-2.088;2023-09-19T00:31:31;18.90;71.40
17080;DHT22;8655;57.106;-2.088;2023-09-19T00:33:57;18.90;71.40
17080;DHT22;8655;57.106;-2.088;2023-09-19T00:36:25;18.90;71.40
17080;DHT22;8655;57.106;-2.088;2023-09-19T00:38:51;18.90;71.40
17080;DHT22;8655;57.106;-2.088;2023-09-19T00:41:16;18.90;71.40
17080;DHT22;8655;57.106;-2.088;2023-09-19T00:43:42;18.90;71.40
17080;DHT22;8655;57.106;-2.088;2023-09-19T00:46:08;18.90;71.40
17080;DHT22;8655;57.106;-2.088;2023-09-19T00:48:40;18.90;71.40
17080;DHT22;8655;57.106;-2.088;2023-09-19T00:51:06;18.90;71.30
17080;DHT22;8655;57.106;-2.088;2023-09-19T00:53:32;18.90;71.40
17080;DHT22;8655;57.106;-2.088;2023-09-19T00:56:00;18.90;71.30
17080;DHT22;8655;57.106;-2.088;2023-09-19T00:58:28;18.90;71.30
17080;DHT22;8655;57.106;-2.088;2023-09-19T01:00:59;18.90;71.30
17080;DHT22;8655;57.106;-2.088;2023-09-19T01:03:24;18.90;71.30
17080;DHT22;8655;57.106;-2.088;2023-09-19T01:05:50;18.80;71.20
17080;DHT22;8655;57.106;-2.088;2023-09-19T01:08:16;18.80;71.20
17080;DHT22;8655;57.106;-2.088;2023-09-19T01:10:59;18.80;71.20
17080;DHT22;8655;57.106;-2.088;2023-09-19T01:13:31;18.80;71.10
17080;DHT22;8655;57.106;-2.088;2023-09-19T01:16:29;18.80;71.20
17080;DHT22;8655;57.106;-2.088;2023-09-19T01:22:00;18.80;71.10
17080;DHT22;8655;57.106;-2.088;2023-09-19T01:30:32;18.80;71.10
17080;DHT22;8655;57.106;-2.088;2023-09-19T01:32:59;18.80;71.10
17080;DHT22;8655;57.106;-2.088;2023-09-19T01:35:25;18.80;71.10
17080;DHT22;8655;57.106;-2.088;2023-09-19T01:37:51;18.80;71.80
17080;DHT22;8655;57.106;-2.088;2023-09-19T01:40:19;18.80;71.10
17080;DHT22;8655;57.106;-2.088;2023-09-19T01:45:55;18.80;71.10
17080;DHT22;8655;57.106;-2.088;2023-09-19T01:48:38;18.80;71.10
17080;DHT22;8655;57.106;-2.088;2023-09-19T01:51:09;18.80;71.10
17080;DHT22;8655;57.106;-2.088;2023-09-19T01:53:55;18.80;71.10
17080;DHT22;8655;57.106;-2.088;2023-09-19T01:56:34;18.80;71.10
17080;DHT22;8655;57.106;-2.088;2023-09-19T01:59:06;18.80;71.10
17080;DHT22;8655;57.106;-2.088;2023-09-19T02:01:34;18.80;71.10
17080;DHT22;8655;57.106;-2.088;2023-09-19T02:04:02;18.80;71.10
17080;DHT22;8655;57.106;-2.088;2023-09-19T02:06:28;18.70;71.00
17080;DHT22;8655;57.106;-2.088;2023-09-19T02:08:54;18.70;71.00
17080;DHT22;8655;57.106;-2.088;2023-09-19T02:11:21;18.80;71.10
17080;DHT22;8655;57.106;-2.088;2023-09-19T02:13:46;18.70;71.00
17080;DHT22;8655;57.106;-2.088;2023-09-19T02:16:12;18.70;71.00
17080;DHT22;8655;57.106;-2.088;2023-09-19T02:18:38;18.70;71.00
17080;DHT22;8655;57.106;-2.088;2023-09-19T02:21:04;18.70;70.90
17080;DHT22;8655;57.106;-2.088;2023-09-19T02:23:32;18.70;70.90
17080;DHT22;8655;57.106;-2.088;2023-09-19T02:25:59;18.70;71.00
17080;DHT22;8655;57.106;-2.088;2023-09-19T02:28:29;18.70;71.00
17080;DHT22;8655;57.106;-2.088;2023-09-19T02:31:00;18.70;70.90
17080;DHT22;8655;57.106;-2.088;2023-09-19T02:33:25;18.70;70.90
17080;DHT22;8655;57.106;-2.088;2023-09-19T02:35:55;18.70;70.90
17080;DHT22;8655;57.106;-2.088;2023-09-19T02:38:23;18.70;70.90
17080;DHT22;8655;57.106;-2.088;2023-09-19T02:40:54;18.70;70.90
17080;DHT22;8655;57.106;-2.088;2023-09-19T02:43:21;18.70;70.90
17080;DHT22;8655;57.106;-2.088;2023-09-19T02:45:47;18.70;71.50
17080;DHT22;8655;57.106;-2.088;2023-09-19T02:48:15;18.70;70.80
17080;DHT22;8655;57.106;-2.088;2023-09-19T02:50:41;18.70;70.80
17080;DHT22;8655;57.106;-2.088;2023-09-19T02:53:07;18.70;70.80
17080;DHT22;8655;57.106;-2.088;2023-09-19T02:55:33;18.70;70.80
17080;DHT22;8655;57.106;-2.088;2023-09-19T02:57:59;18.70;70.80
17080;DHT22;8655;57.106;-2.088;2023-09-19T03:00:26;18.70;70.80
17080;DHT22;8655;57.106;-2.088;2023-09-19T03:02:56;18.70;70.80
17080;DHT22;8655;57.106;-2.088;2023-09-19T03:05:23;18.70;70.80
17080;DHT22;8655;57.106;-2.088;2023-09-19T03:07:49;18.70;70.80
17080;DHT22;8655;57.106;-2.088;2023-09-19T03:10:18;18.70;70.80
17080;DHT22;8655;57.106;-2.088;2023-09-19T03:12:44;18.70;70.80
17080;DHT22;8655;57.106;-2.088;2023-09-19T03:15:10;18.70;70.80
17080;DHT22;8655;57.106;-2.088;2023-09-19T03:17:36;18.70;70.80
17080;DHT22;8655;57.106;-2.088;2023-09-19T03:20:03;18.70;70.80
17080;DHT22;8655;57.106;-2.088;2023-09-19T03:22:30;18.70;70.80
17080;DHT22;8655;57.106;-2.088;2023-09-19T03:24:55;18.60;70.60
17080;DHT22;8655;57.106;-2.088;2023-09-19T03:27:21;18.60;70.60
17080;DHT22;8655;57.106;-2.088;2023-09-19T03:29:47;18.60;70.60
17080;DHT22;8655;57.106;-2.088;2023-09-19T03:32:13;18.60;70.60
17080;DHT22;8655;57.106;-2.088;2023-09-19T03:34:39;18.60;70.60
17080;DHT22;8655;57.106;-2.088;2023-09-19T03:37:11;18.60;70.60
17080;DHT22;8655;57.106;-2.088;2023-09-19T03:39:37;18.60;70.60
17080;DHT22;8655;57.106;-2.088;2023-09-19T03:42:03;18.60;70.60
17080;DHT22;8655;57.106;-2.088;2023-09-19T03:44:33;18.60;70.60
17080;DHT22;8655;57.106;-2.088;2023-09-19T03:46:58;18.60;70.60
17080;DHT22;8655;57.106;-2.088;2023-09-19T03:49:24;18.60;70.60
17080;DHT22;8655;57.106;-2.088;2023-09-19T03:51:50;18.60;70.60
17080;DHT22;8655;57.106;-2.088;2023-09-19T03:54:15;18.60;70.60
17080;DHT22;8655;57.106;-2.088;2023-09-19T03:56:42;18.60;70.60
17080;DHT22;8655;57.106;-2.088;2023-09-19T03:59:09;18.60;70.50
17080;DHT22;8655;57.106;-2.088;2023-09-19T04:01:35;18.60;70.50
17080;DHT22;8655;57.106;-2.088;2023-09-19T04:04:00;18.60;70.50
17080;DHT22;8655;57.106;-2.088;2023-09-19T04:06:34;18.60;70.50
17080;DHT22;8655;57.106;-2.088;2023-09-19T04:09:01;18.60;70.50
17080;DHT22;8655;57.106;-2.088;2023-09-19T04:11:27;18.60;70.50
17080;DHT22;8655;57.106;-2.088;2023-09-19T04:13:53;18.60;70.50
17080;DHT22;8655;57.106;-2.088;2023-09-19T04:16:19;18.60;70.50
17080;DHT22;8655;57.106;-2.088;2023-09-19T04:18:45;18.50;70.40
17080;DHT22;8655;57.106;-2.088;2023-09-19T04:21:10;18.50;70.40
17080;DHT22;8655;57.106;-2.088;2023-09-19T04:23:36;18.50;70.40
17080;DHT22;8655;57.106;-2.088;2023-09-19T04:26:02;18.50;70.40
17080;DHT22;8655;57.106;-2.088;2023-09-19T04:28:30;18.50;70.30
17080;DHT22;8655;57.106;-2.088;2023-09-19T04:30:56;18.50;70.30
17080;DHT22;8655;57.106;-2.088;2023-09-19T04:33:23;18.50;70.30
17080;DHT22;8655;57.106;-2.088;2023-09-19T04:35:51;18.50;70.30
17080;DHT22;8655;57.106;-2.088;2023-09-19T04:38:18;18.50;70.30
17080;DHT22;8655;57.106;-2.088;2023-09-19T04:40:45;18.50;70.30
17080;DHT22;8655;57.106;-2.088;2023-09-19T04:43:10;18.50;70.30
17080;DHT22;8655;57.106;-2.088;2023-09-19T04:45:38;18.50;70.30
17080;DHT22;8655;57.106;-2.088;2023-09-19T04:48:05;18.50;70.30
17080;DHT22;8655;57.106;-2.088;2023-09-19T04:50:32;18.50;70.30
17080;DHT22;8655;57.106;-2.088;2023-09-19T04:52:59;18.50;70.20
17080;DHT22;8655;57.106;-2.088;2023-09-19T04:55:25;18.50;70.30
17080;DHT22;8655;57.106;-2.088;2023-09-19T04:57:51;18.50;70.20
17080;DHT22;8655;57.106;-2.088;2023-09-19T05:00:21;18.50;70.20
17080;DHT22;8655;57.106;-2.088;2023-09-19T05:02:54;18.50;70.20
17080;DHT22;8655;57.106;-2.088;2023-09-19T05:05:20;18.50;70.20
17080;DHT22;8655;57.106;-2.088;2023-09-19T05:07:47;18.50;70.20
17080;DHT22;8655;57.106;-2.088;2023-09-19T05:10:13;18.50;70.20
17080;DHT22;8655;57.106;-2.088;2023-09-19T05:12:40;18.50;70.20
17080;DHT22;8655;57.106;-2.088;2023-09-19T05:15:07;18.40;70.10
17080;DHT22;8655;57.106;-2.088;2023-09-19T05:17:34;18.50;70.20
17080;DHT22;8655;57.106;-2.088;2023-09-19T05:20:03;18.50;70.20
17080;DHT22;8655;57.106;-2.088;2023-09-19T05:22:50;18.40;70.10
17080;DHT22;8655;57.106;-2.088;2023-09-19T05:25:22;18.50;70.10
17080;DHT22;8655;57.106;-2.088;2023-09-19T05:27:48;18.50;70.20
17080;DHT22;8655;57.106;-2.088;2023-09-19T05:30:14;18.40;70.80
17080;DHT22;8655;57.106;-2.088;2023-09-19T05:32:40;18.40;70.10
17080;DHT22;8655;57.106;-2.088;2023-09-19T05:35:06;18.40;70.10
17080;DHT22;8655;57.106;-2.088;2023-09-19T05:37:35;18.40;70.00
17080;DHT22;8655;57.106;-2.088;2023-09-19T05:40:02;18.40;70.10
17080;DHT22;8655;57.106;-2.088;2023-09-19T05:42:35;18.40;70.00
17080;DHT22;8655;57.106;-2.088;2023-09-19T05:45:00;18.40;70.00
17080;DHT22;8655;57.106;-2.088;2023-09-19T05:47:26;18.40;70.00
17080;DHT22;8655;57.106;-2.088;2023-09-19T05:49:51;18.40;70.00
17080;DHT22;8655;57.106;-2.088;2023-09-19T05:52:17;18.40;70.10
17080;DHT22;8655;57.106;-2.088;2023-09-19T05:54:44;18.40;70.00
17080;DHT22;8655;57.106;-2.088;2023-09-19T05:57:10;18.40;70.00
17080;DHT22;8655;57.106;-2.088;2023-09-19T05:59:37;18.40;70.00
17080;DHT22;8655;57.106;-2.088;2023-09-19T06:02:05;18.40;70.00
17080;DHT22;8655;57.106;-2.088;2023-09-19T06:04:31;18.40;70.00
17080;DHT22;8655;57.106;-2.088;2023-09-19T06:06:57;18.40;70.00
17080;DHT22;8655;57.106;-2.088;2023-09-19T06:09:23;18.40;70.00
17080;DHT22;8655;57.106;-2.088;2023-09-19T06:11:49;18.40;70.00
17080;DHT22;8655;57.106;-2.088;2023-09-19T06:14:15;18.40;70.00
17080;DHT22;8655;57.106;-2.088;2023-09-19T06:16:43;18.40;70.00
17080;DHT22;8655;57.106;-2.088;2023-09-19T06:19:08;18.40;70.00
17080;DHT22;8655;57.106;-2.088;2023-09-19T06:21:35;18.40;70.00
17080;DHT22;8655;57.106;-2.088;2023-09-19T06:24:02;18.40;70.00
17080;DHT22;8655;57.106;-2.088;2023-09-19T06:26:28;18.40;70.00
17080;DHT22;8655;57.106;-2.088;2023-09-19T06:28:55;18.40;69.90
17080;DHT22;8655;57.106;-2.088;2023-09-19T06:31:21;18.40;69.90
17080;DHT22;8655;57.106;-2.088;2023-09-19T06:33:48;18.40;70.00
17080;DHT22;8655;57.106;-2.088;2023-09-19T06:36:14;18.40;69.90
17080;DHT22;8655;57.106;-2.088;2023-09-19T06:38:40;18.40;69.90
17080;DHT22;8655;57.106;-2.088;2023-09-19T06:41:06;18.40;69.90
17080;DHT22;8655;57.106;-2.088;2023-09-19T06:43:35;18.40;69.90
17080;DHT22;8655;57.106;-2.088;2023-09-19T06:46:03;18.40;69.90
17080;DHT22;8655;57.106;-2.088;2023-09-19T06:48:29;18.30;69.80
17080;DHT22;8655;57.106;-2.088;2023-09-19T06:50:56;18.40;69.90
17080;DHT22;8655;57.106;-2.088;2023-09-19T06:53:24;18.30;69.80
17080;DHT22;8655;57.106;-2.088;2023-09-19T06:55:50;18.30;69.80
17080;DHT22;8655;57.106;-2.088;2023-09-19T06:58:16;18.30;69.80
17080;DHT22;8655;57.106;-2.088;2023-09-19T07:00:42;18.30;69.70
17080;DHT22;8655;57.106;-2.088;2023-09-19T07:03:08;18.30;69.80
17080;DHT22;8655;57.106;-2.088;2023-09-19T07:05:37;18.30;69.70
17080;DHT22;8655;57.106;-2.088;2023-09-19T07:08:05;18.30;69.70
17080;DHT22;8655;57.106;-2.088;2023-09-19T07:10:32;18.30;69.70
17080;DHT22;8655;57.106;-2.088;2023-09-19T07:13:00;18.30;69.70
17080;DHT22;8655;57.106;-2.088;2023-09-19T07:15:27;18.30;69.70
17080;DHT22;8655;57.106;-2.088;2023-09-19T07:17:53;18.30;69.70
17080;DHT22;8655;57.106;-2.088;2023-09-19T07:20:20;18.30;69.70
17080;DHT22;8655;57.106;-2.088;2023-09-19T07:22:46;18.30;69.70
17080;DHT22;8655;57.106;-2.088;2023-09-19T07:25:13;18.30;69.70
17080;DHT22;8655;57.106;-2.088;2023-09-19T07:27:41;18.30;69.70
17080;DHT22;8655;57.106;-2.088;2023-09-19T07:30:07;18.30;69.70
17080;DHT22;8655;57.106;-2.088;2023-09-19T07:32:34;18.30;69.70
17080;DHT22;8655;57.106;-2.088;2023-09-19T07:35:02;18.30;69.70
17080;DHT22;8655;57.106;-2.088;2023-09-19T07:37:29;18.30;69.70
17080;DHT22;8655;57.106;-2.088;2023-09-19T07:39:56;18.30;69.70
17080;DHT22;8655;57.106;-2.088;2023-09-19T07:42:22;18.30;69.70
17080;DHT22;8655;57.106;-2.088;2023-09-19T07:44:48;18.30;69.70
17080;DHT22;8655;57.106;-2.088;2023-09-19T07:47:16;18.30;69.70
17080;DHT22;8655;57.106;-2.088;2023-09-19T07:49:42;18.30;69.70
17080;DHT22;8655;57.106;-2.088;2023-09-19T07:52:09;18.30;69.70
17080;DHT22;8655;57.106;-2.088;2023-09-19T07:54:36;18.30;69.70
17080;DHT22;8655;57.106;-2.088;2023-09-19T07:57:02;18.20;69.60
17080;DHT22;8655;57.106;-2.088;2023-09-19T07:59:28;18.30;69.70
17080;DHT22;8655;57.106;-2.088;2023-09-19T08:01:54;18.20;69.60
17080;DHT22;8655;57.106;-2.088;2023-09-19T08:04:19;18.20;69.60
17080;DHT22;8655;57.106;-2.088;2023-09-19T08:06:45;18.20;69.50
17080;DHT22;8655;57.106;-2.088;2023-09-19T08:09:11;18.20;69.50
17080;DHT22;8655;57.106;-2.088;2023-09-19T08:11:38;18.20;69.60
17080;DHT22;8655;57.106;-2.088;2023-09-19T08:14:05;18.20;69.50
17080;DHT22;8655;57.106;-2.088;2023-09-19T08:16:33;18.20;69.50
17080;DHT22;8655;57.106;-2.088;2023-09-19T08:18:58;18.20;69.60
17080;DHT22;8655;57.106;-2.088;2023-09-19T08:21:24;18.20;69.50
17080;DHT22;8655;57.106;-2.088;2023-09-19T08:23:51;18.20;69.60
17080;DHT22;8655;57.106;-2.088;2023-09-19T08:26:17;18.20;69.60
17080;DHT22;8655;57.106;-2.088;2023-09-19T08:28:43;18.20;69.60
17080;DHT22;8655;57.106;-2.088;2023-09-19T08:31:08;18.20;69.50
17080;DHT22;8655;57.106;-2.088;2023-09-19T08:33:35;18.20;69.60
17080;DHT22;8655;57.106;-2.088;2023-09-19T08:36:04;18.20;69.50
17080;DHT22;8655;57.106;-2.088;2023-09-19T08:38:35;18.20;69.50
17080;DHT22;8655;57.106;-2.088;2023-09-19T08:41:06;18.20;69.50
17080;DHT22;8655;57.106;-2.088;2023-09-19T08:43:31;18.20;69.60
17080;DHT22;8655;57.106;-2.088;2023-09-19T08:48:31;18.20;69.50
17080;DHT22;8655;57.106;-2.088;2023-09-19T08:51:02;18.20;69.50
17080;DHT22;8655;57.106;-2.088;2023-09-19T08:53:51;18.20;69.50
17080;DHT22;8655;57.106;-2.088;2023-09-19T08:56:22;18.20;69.50
17080;DHT22;8655;57.106;-2.088;2023-09-19T08:58:54;18.20;69.50
17080;DHT22;8655;57.106;-2.088;2023-09-19T09:01:22;18.20;69.50
17080;DHT22;8655;57.106;-2.088;2023-09-19T09:03:52;18.20;69.60
17080;DHT22;8655;57.106;-2.088;2023-09-19T09:06:20;18.20;69.60
17080;DHT22;8655;57.106;-2.088;2023-09-19T09:08:46;18.20;69.50
17080;DHT22;8655;57.106;-2.088;2023-09-19T09:11:13;18.20;69.50
17080;DHT22;8655;57.106;-2.088;2023-09-19T09:13:40;18.20;69.60
17080;DHT22;8655;57.106;-2.088;2023-09-19T09:16:07;18.20;69.60
17080;DHT22;8655;57.106;-2.088;2023-09-19T09:18:35;18.20;69.50
17080;DHT22;8655;57.106;-2.088;2023-09-19T09:21:01;18.20;69.50
17080;DHT22;8655;57.106;-2.088;2023-09-19T09:23:27;18.20;69.60
17080;DHT22;8655;57.106;-2.088;2023-09-19T09:25:58;18.20;69.50
17080;DHT22;8655;57.106;-2.088;2023-09-19T09:28:34;18.20;69.60
17080;DHT22;8655;57.106;-2.088;2023-09-19T09:31:02;18.20;69.50
17080;DHT22;8655;57.106;-2.088;2023-09-19T09:33:35;18.20;69.50
17080;DHT22;8655;57.106;-2.088;2023-09-19T09:36:02;18.20;69.50
17080;DHT22;8655;57.106;-2.088;2023-09-19T09:38:45;18.20;69.60
17080;DHT22;8655;57.106;-2.088;2023-09-19T09:41:12;18.20;69.50
17080;DHT22;8655;57.106;-2.088;2023-09-19T09:43:52;18.20;69.50
17080;DHT22;8655;57.106;-2.088;2023-09-19T09:46:20;18.10;69.50
17080;DHT22;8655;57.106;-2.088;2023-09-19T09:48:46;18.20;69.50
17080;DHT22;8655;57.106;-2.088;2023-09-19T09:51:32;18.20;69.50
17080;DHT22;8655;57.106;-2.088;2023-09-19T09:54:31;18.20;69.50
17080;DHT22;8655;57.106;-2.088;2023-09-19T09:57:03;18.20;69.50
17080;DHT22;8655;57.106;-2.088;2023-09-19T10:02:18;18.10;69.40
17080;DHT22;8655;57.106;-2.088;2023-09-19T10:04:53;18.10;69.50
17080;DHT22;8655;57.106;-2.088;2023-09-19T10:07:31;18.10;69.50
17080;DHT22;8655;57.106;-2.088;2023-09-19T10:10:08;18.10;69.50
17080;DHT22;8655;57.106;-2.088;2023-09-19T10:12:49;18.10;69.50
17080;DHT22;8655;57.106;-2.088;2023-09-19T10:15:18;18.10;69.50
17080;DHT22;8655;57.106;-2.088;2023-09-19T10:17:47;18.10;69.50
17080;DHT22;8655;57.106;-2.088;2023-09-19T10:20:15;18.10;69.50
17080;DHT22;8655;57.106;-2.088;2023-09-19T10:23:05;18.10;69.50
17080;DHT22;8655;57.106;-2.088;2023-09-19T10:25:37;18.10;69.50
17080;DHT22;8655;57.106;-2.088;2023-09-19T10:28:06;18.10;69.40
17080;DHT22;8655;57.106;-2.088;2023-09-19T10:30:37;18.10;69.50
17080;DHT22;8655;57.106;-2.088;2023-09-19T10:33:09;18.10;69.50
17080;DHT22;8655;57.106;-2.088;2023-09-19T10:35:38;18.20;69.50
17080;DHT22;8655;57.106;-2.088;2023-09-19T10:38:10;18.10;69.50
17080;DHT22;8655;57.106;-2.088;2023-09-19T10:40:37;18.10;69.50
17080;DHT22;8655;57.106;-2.088;2023-09-19T10:43:06;18.20;69.50
17080;DHT22;8655;57.106;-2.088;2023-09-19T10:45:35;18.10;69.50
17080;DHT22;8655;57.106;-2.088;2023-09-19T10:48:01;18.10;69.50
17080;DHT22;8655;57.106;-2.088;2023-09-19T10:50:35;18.10;69.40
17080;DHT22;8655;57.106;-2.088;2023-09-19T10:53:04;18.10;69.50
17080;DHT22;8655;57.106;-2.088;2023-09-19T10:55:34;18.10;69.50
17080;DHT22;8655;57.106;-2.088;2023-09-19T10:58:05;18.10;69.50
17080;DHT22;8655;57.106;-2.088;2023-09-19T11:00:58;18.10;69.50
17080;DHT22;8655;57.106;-2.088;2023-09-19T11:03:44;18.10;69.50
17080;DHT22;8655;57.106;-2.088;2023-09-19T11:06:15;18.10;69.50
17080;DHT22;8655;57.106;-2.088;2023-09-19T11:08:59;18.10;69.50
17080;DHT22;8655;57.106;-2.088;2023-09-19T11:30:34;18.10;69.50
17080;DHT22;8655;57.106;-2.088;2023-09-19T11:33:30;18.10;69.50
17080;DHT22;8655;57.106;-2.088;2023-09-19T11:36:16;18.10;69.50
17080;DHT22;8655;57.106;-2.088;2023-09-19T11:46:27;18.10;69.50
17080;DHT22;8655;57.106;-2.088;2023-09-19T11:48:54;18.10;69.50
17080;DHT22;8655;57.106;-2.088;2023-09-19T11:51:21;18.10;69.50
17080;DHT22;8655;57.106;-2.088;2023-09-19T11:53:50;18.10;69.50
17080;DHT22;8655;57.106;-2.088;2023-09-19T11:56:21;18.10;69.50
17080;DHT22;8655;57.106;-2.088;2023-09-19T11:58:53;18.10;69.50
17080;DHT22;8655;57.106;-2.088;2023-09-19T12:01:39;18.10;69.50
17080;DHT22;8655;57.106;-2.088;2023-09-19T12:04:11;18.10;69.50
17080;DHT22;8655;57.106;-2.088;2023-09-19T12:06:37;18.10;69.50
17080;DHT22;8655;57.106;-2.088;2023-09-19T12:09:04;18.10;69.50
17080;DHT22;8655;57.106;-2.088;2023-09-19T12:11:41;18.10;69.50
17080;DHT22;8655;57.106;-2.088;2023-09-19T12:14:09;18.10;69.50
17080;DHT22;8655;57.106;-2.088;2023-09-19T12:16:35;18.10;69.50
17080;DHT22;8655;57.106;-2.088;2023-09-19T12:19:19;18.20;69.50
17080;DHT22;8655;57.106;-2.088;2023-09-19T12:22:03;18.10;69.40
17080;DHT22;8655;57.106;-2.088;2023-09-19T12:24:32;18.20;69.50
17080;DHT22;8655;57.106;-2.088;2023-09-19T12:27:03;18.20;69.50
17080;DHT22;8655;57.106;-2.088;2023-09-19T12:29:52;18.20;69.50
17080;DHT22;8655;57.106;-2.088;2023-09-19T12:32:34;18.20;69.50
17080;DHT22;8655;57.106;-2.088;2023-09-19T12:35:01;18.20;69.50
17080;DHT22;8655;57.106;-2.088;2023-09-19T12:37:33;18.20;69.50
17080;DHT22;8655;57.106;-2.088;2023-09-19T12:40:06;18.20;69.50
17080;DHT22;8655;57.106;-2.088;2023-09-19T12:42:44;18.20;69.50
17080;DHT22;8655;57.106;-2.088;2023-09-19T12:45:10;18.20;69.50
17080;DHT22;8655;57.106;-2.088;2023-09-19T12:47:39;18.20;69.50
17080;DHT22;8655;57.106;-2.088;2023-09-19T12:50:12;18.20;69.60
17080;DHT22;8655;57.106;-2.088;2023-09-19T12:52:56;18.20;69.60
17080;DHT22;8655;57.106;-2.088;2023-09-19T12:55:27;18.20;69.50
17080;DHT22;8655;57.106;-2.088;2023-09-19T12:58:00;18.20;69.50
17080;DHT22;8655;57.106;-2.088;2023-09-19T13:00:38;18.20;69.50
17080;DHT22;8655;57.106;-2.088;2023-09-19T13:03:15;18.20;69.50
17080;DHT22;8655;57.106;-2.088;2023-09-19T13:05:55;18.20;69.50
17080;DHT22;8655;57.106;-2.088;2023-09-19T13:08:34;18.20;69.50
17080;DHT22;8655;57.106;-2.088;2023-09-19T13:11:22;18.20;69.50
17080;DHT22;8655;57.106;-2.088;2023-09-19T13:16:34;18.20;69.60
17080;DHT22;8655;57.106;-2.088;2023-09-19T13:19:55;18.10;69.50
17080;DHT22;8655;57.106;-2.088;2023-09-19T13:25:16;18.20;69.60
17080;DHT22;8655;57.106;-2.088;2023-09-19T13:27:55;18.20;69.50
17080;DHT22;8655;57.106;-2.088;2023-09-19T13:30:23;18.20;69.60
17080;DHT22;8655;57.106;-2.088;2023-09-19T13:32:51;18.10;69.50
17080;DHT22;8655;57.106;-2.088;2023-09-19T13:35:18;18.20;69.60
17080;DHT22;8655;57.106;-2.088;2023-09-19T13:37:44;18.20;69.60
17080;DHT22;8655;57.106;-2.088;2023-09-19T13:40:15;18.10;69.50
17080;DHT22;8655;57.106;-2.088;2023-09-19T13:42:41;18.20;69.60
17080;DHT22;8655;57.106;-2.088;2023-09-19T13:45:08;18.20;69.60
17080;DHT22;8655;57.106;-2.088;2023-09-19T13:47:37;18.20;69.60
17080;DHT22;8655;57.106;-2.088;2023-09-19T13:50:04;18.20;69.60
17080;DHT22;8655;57.106;-2.088;2023-09-19T13:52:31;18.20;69.60
17080;DHT22;8655;57.106;-2.088;2023-09-19T13:54:57;18.20;69.60
17080;DHT22;8655;57.106;-2.088;2023-09-19T13:57:24;18.20;69.60
17080;DHT22;8655;57.106;-2.088;2023-09-19T13:59:50;18.20;69.60
17080;DHT22;8655;57.106;-2.088;2023-09-19T14:02:17;18.20;69.60
17080;DHT22;8655;57.106;-2.088;2023-09-19T14:04:44;18.20;69.60
17080;DHT22;8655;57.106;-2.088;2023-09-19T14:07:10;18.20;69.60
17080;DHT22;8655;57.106;-2.088;2023-09-19T14:09:36;18.20;69.60
17080;DHT22;8655;57.106;-2.088;2023-09-19T14:12:03;18.20;69.60
17080;DHT22;8655;57.106;-2.088;2023-09-19T14:14:28;18.20;69.60
17080;DHT22;8655;57.106;-2.088;2023-09-19T14:16:54;18.20;69.60
17080;DHT22;8655;57.106;-2.088;2023-09-19T14:19:20;18.20;69.60
17080;DHT22;8655;57.106;-2.088;2023-09-19T14:21:46;18.20;69.60
17080;DHT22;8655;57.106;-2.088;2023-09-19T14:24:19;18.20;69.60
17080;DHT22;8655;57.106;-2.088;2023-09-19T14:26:45;18.20;69.60
17080;DHT22;8655;57.106;-2.088;2023-09-19T14:29:11;18.20;69.60
17080;DHT22;8655;57.106;-2.088;2023-09-19T14:31:38;18.20;69.60
17080;DHT22;8655;57.106;-2.088;2023-09-19T14:34:05;18.20;69.60
17080;DHT22;8655;57.106;-2.088;2023-09-19T14:36:31;18.20;69.60
17080;DHT22;8655;57.106;-2.088;2023-09-19T14:38:58;18.20;69.60
17080;DHT22;8655;57.106;-2.088;2023-09-19T14:41:24;18.20;69.60
17080;DHT22;8655;57.106;-2.088;2023-09-19T14:43:51;18.20;69.60
17080;DHT22;8655;57.106;-2.088;2023-09-19T14:46:17;18.20;69.60
17080;DHT22;8655;57.106;-2.088;2023-09-19T14:48:44;18.20;69.60
17080;DHT22;8655;57.106;-2.088;2023-09-19T14:51:13;18.20;69.60
17080;DHT22;8655;57.106;-2.088;2023-09-19T14:53:40;18.20;69.60
17080;DHT22;8655;57.106;-2.088;2023-09-19T14:56:08;18.20;69.60
17080;DHT22;8655;57.106;-2.088;2023-09-19T14:58:34;18.20;69.60
17080;DHT22;8655;57.106;-2.088;2023-09-19T15:01:08;18.20;69.60
17080;DHT22;8655;57.106;-2.088;2023-09-19T15:03:34;18.20;69.60
17080;DHT22;8655;57.106;-2.088;2023-09-19T15:06:05;18.20;69.60
17080;DHT22;8655;57.106;-2.088;2023-09-19T15:08:33;18.20;69.60
17080;DHT22;8655;57.106;-2.088;2023-09-19T15:11:01;18.20;69.60
17080;DHT22;8655;57.106;-2.088;2023-09-19T15:13:30;18.20;69.60
17080;DHT22;8655;57.106;-2.088;2023-09-19T15:16:03;18.20;69.60
17080;DHT22;8655;57.106;-2.088;2023-09-19T15:18:29;18.30;69.70
17080;DHT22;8655;57.106;-2.088;2023-09-19T15:21:02;18.20;69.60
17080;DHT22;8655;57.106;-2.088;2023-09-19T15:23:29;18.30;69.70
17080;DHT22;8655;57.106;-2.088;2023-09-19T15:25:56;18.30;69.70
17080;DHT22;8655;57.106;-2.088;2023-09-19T15:28:22;18.30;69.70
17080;DHT22;8655;57.106;-2.088;2023-09-19T15:30:49;18.30;69.80
17080;DHT22;8655;57.106;-2.088;2023-09-19T15:33:15;18.30;69.70
17080;DHT22;8655;57.106;-2.088;2023-09-19T15:35:41;18.30;69.70
17080;DHT22;8655;57.106;-2.088;2023-09-19T15:38:07;18.30;69.70
17080;DHT22;8655;57.106;-2.088;2023-09-19T15:40:33;18.30;69.70
17080;DHT22;8655;57.106;-2.088;2023-09-19T15:42:59;18.30;69.70
17080;DHT22;8655;57.106;-2.088;2023-09-19T15:45:25;18.30;69.70
17080;DHT22;8655;57.106;-2.088;2023-09-19T15:47:51;18.30;69.70
17080;DHT22;8655;57.106;-2.088;2023-09-19T15:50:17;18.30;69.70
17080;DHT22;8655;57.106;-2.088;2023-09-19T15:52:44;18.30;69.70
17080;DHT22;8655;57.106;-2.088;2023-09-19T15:55:09;18.30;69.70
17080;DHT22;8655;57.106;-2.088;2023-09-19T15:57:38;18.30;69.70
17080;DHT22;8655;57.106;-2.088;2023-09-19T16:00:05;18.30;69.70
17080;DHT22;8655;57.106;-2.088;2023-09-19T16:02:36;18.30;69.70
17080;DHT22;8655;57.106;-2.088;2023-09-19T16:05:02;18.30;69.70
17080;DHT22;8655;57.106;-2.088;2023-09-19T16:07:31;18.30;69.70
17080;DHT22;8655;57.106;-2.088;2023-09-19T16:09:57;18.30;69.70
17080;DHT22;8655;57.106;-2.088;2023-09-19T16:12:24;18.30;69.70
17080;DHT22;8655;57.106;-2.088;2023-09-19T16:14:50;18.30;69.70
17080;DHT22;8655;57.106;-2.088;2023-09-19T16:17:15;18.30;69.70
17080;DHT22;8655;57.106;-2.088;2023-09-19T16:19:41;18.30;69.70
17080;DHT22;8655;57.106;-2.088;2023-09-19T16:22:09;18.30;69.70
17080;DHT22;8655;57.106;-2.088;2023-09-19T16:24:35;18.30;69.70
17080;DHT22;8655;57.106;-2.088;2023-09-19T16:27:00;18.30;69.80
17080;DHT22;8655;57.106;-2.088;2023-09-19T16:29:26;18.30;69.70
17080;DHT22;8655;57.106;-2.088;2023-09-19T16:31:52;18.30;69.70